Time;durP1;ratioP1;P1;durP2;ratioP2;P2;SDS_P1;SDS_P2;PMS_P1;PMS_P2;Temp;Humidity;BMP_temperature;BMP_pressure;BME280_temperature;BME280_humidity;BME280_pressure;Samples;Min_cycle;Max_cycle;Signal;HPM_P1;HPM_P2
2021/10/03 00:01:03;;;;;;;3.85;3.50;;;;;;;2.78;86.27;101895.41;6334658;22;20479;-74
2021/10/03 00:03:49;;;;;;;7.70;4.53;;;;;;;2.79;86.35;101894.56;6311194;22;20127;-75
2021/10/03 00:06:33;;;;;;;4.15;3.92;;;;;;;2.82;86.20;101892.00;6334325;22;20148;-76
2021/10/03 00:09:18;;;;;;;3.10;3.00;;;;;;;2.83;86.03;101895.47;6332387;22;20037;-75
2021/10/03 00:12:03;;;;;;;4.63;4.22;;;;;;;2.82;85.79;101893.72;6309134;22;20433;-75
2021/10/03 00:14:48;;;;;;;4.18;3.97;;;;;;;2.79;86.18;101894.56;6334619;22;20227;-76
2021/10/03 00:17:33;;;;;;;3.65;3.42;;;;;;;2.75;86.00;101895.38;6265113;22;20030;-75
2021/10/03 00:20:17;;;;;;;5.40;3.17;;;;;;;2.62;86.38;101898.69;6334397;22;20044;-76
2021/10/03 00:23:02;;;;;;;3.60;3.50;;;;;;;2.53;86.72;101898.59;6310618;22;20491;-75
2021/10/03 00:25:46;;;;;;;4.30;4.10;;;;;;;2.43;87.75;101899.34;6311227;22;20075;-75
2021/10/03 00:28:31;;;;;;;3.17;3.08;;;;;;;2.53;88.86;101899.47;6334404;22;20528;-75
2021/10/03 00:31:15;;;;;;;7.30;3.63;;;;;;;2.50;89.22;101895.97;6311039;22;20033;-75
2021/10/03 00:34:00;;;;;;;3.65;3.55;;;;;;;2.44;89.20;101906.22;6334470;22;20449;-75
2021/10/03 00:36:44;;;;;;;6.05;4.78;;;;;;;2.31;88.89;101901.78;6333458;22;20041;-75
2021/10/03 00:39:29;;;;;;;4.18;3.55;;;;;;;2.22;88.90;101899.09;6310626;22;20489;-75
2021/10/03 00:42:13;;;;;;;2.28;2.25;;;;;;;2.19;88.76;101899.94;6334512;22;20049;-76
2021/10/03 00:44:58;;;;;;;4.28;3.90;;;;;;;2.12;88.68;101903.28;6334587;22;20026;-75
2021/10/03 00:47:42;;;;;;;3.75;3.55;;;;;;;2.17;88.86;101911.03;6310961;22;20026;-76
2021/10/03 00:50:27;;;;;;;5.00;3.92;;;;;;;2.04;88.82;101903.19;6289141;22;20093;-75
2021/10/03 00:53:11;;;;;;;3.25;3.13;;;;;;;1.94;88.81;101903.03;6311156;22;20068;-75
2021/10/03 00:55:56;;;;;;;3.70;3.40;;;;;;;1.90;88.93;101901.25;6334589;22;20034;-74
2021/10/03 00:58:41;;;;;;;4.00;3.80;;;;;;;1.82;89.20;101898.59;6336643;22;20160;-74
2021/10/03 01:01:25;;;;;;;4.30;3.90;;;;;;;1.80;89.30;101889.13;6312462;22;20055;-76
2021/10/03 01:04:10;;;;;;;3.35;3.05;;;;;;;1.80;89.23;101900.25;6311041;22;20033;-75
2021/10/03 01:06:55;;;;;;;2.70;2.55;;;;;;;1.77;89.60;101902.78;6334580;22;20433;-75
2021/10/03 01:09:39;;;;;;;3.42;3.28;;;;;;;1.73;89.21;101895.91;6334090;22;20058;-75
2021/10/03 01:12:24;;;;;;;3.50;3.38;;;;;;;1.68;89.34;101896.66;6310780;22;20068;-74
2021/10/03 01:15:09;;;;;;;4.63;4.32;;;;;;;1.61;89.34;101892.25;6334272;22;20366;-76
2021/10/03 01:17:54;;;;;;;2.78;2.67;;;;;;;1.53;89.46;101887.03;6334283;22;20029;-75
2021/10/03 01:20:38;;;;;;;3.60;3.45;;;;;;;1.63;89.81;101886.31;6333890;22;20424;-74
2021/10/03 01:23:23;;;;;;;2.17;2.08;;;;;;;1.81;89.61;101895.97;6333924;22;20030;-75
2021/10/03 01:26:07;;;;;;;3.97;3.78;;;;;;;1.83;89.78;101895.16;6334132;22;20037;-74
2021/10/03 01:28:53;;;;;;;8.60;3.33;;;;;;;1.79;89.69;101889.97;6334025;22;20033;-75
2021/10/03 01:31:37;;;;;;;3.65;3.42;;;;;;;1.78;89.86;101891.66;6333586;22;20088;-74
2021/10/03 01:34:22;;;;;;;4.70;3.55;;;;;;;1.73;89.85;101887.31;6333795;22;20623;-76
2021/10/03 01:37:06;;;;;;;4.85;4.50;;;;;;;1.69;90.08;101888.97;6310852;22;20072;-77
2021/10/03 01:39:51;;;;;;;6.45;3.72;;;;;;;1.64;89.61;101892.34;6333877;22;20045;-76
2021/10/03 01:42:36;;;;;;;4.75;4.20;;;;;;;1.51;90.01;101887.00;6310507;22;20030;-75
2021/10/03 01:45:21;;;;;;;4.70;4.40;;;;;;;1.43;89.66;101898.03;6311725;22;20033;-74
2021/10/03 01:48:13;;;;;;;4.97;4.65;;;;;;;1.48;89.80;101888.66;6335973;22;20030;-75
2021/10/03 01:51:05;;;;;;;21.77;4.53;;;;;;;1.47;89.73;101884.38;6335714;22;20123;-76
2021/10/03 01:53:52;;;;;;;20.13;5.25;;;;;;;1.43;89.67;101890.31;6336155;22;20042;-75
2021/10/03 01:56:38;;;;;;;3.92;3.63;;;;;;;1.50;89.78;101892.13;6312638;22;20492;-76
2021/10/03 01:59:22;;;;;;;2.78;2.67;;;;;;;1.50;89.77;101894.69;6335482;22;20028;-75
2021/10/03 02:02:07;;;;;;;5.10;4.80;;;;;;;1.47;89.59;101900.63;6312146;22;20026;-74
2021/10/03 02:04:51;;;;;;;5.85;3.95;;;;;;;1.43;89.56;101893.75;6312393;22;20034;-74
2021/10/03 02:07:36;;;;;;;3.00;2.90;;;;;;;1.44;89.58;101894.63;6312296;22;20546;-74
2021/10/03 02:10:20;;;;;;;6.78;3.30;;;;;;;1.39;89.63;101901.38;6335642;22;20076;-73
2021/10/03 02:13:05;;;;;;;3.83;3.72;;;;;;;1.32;89.56;101905.56;6335607;22;20068;-74
2021/10/03 02:15:50;;;;;;;3.33;3.13;;;;;;;1.28;89.83;101905.47;6335509;22;20057;-76
2021/10/03 02:18:36;;;;;;;4.22;3.80;;;;;;;1.25;89.64;101906.31;6335307;22;20037;-74
2021/10/03 02:21:21;;;;;;;5.05;4.57;;;;;;;1.28;89.85;101903.78;6335428;22;20033;-75
2021/10/03 02:24:06;;;;;;;2.63;2.53;;;;;;;1.27;89.97;101906.34;6312283;22;20151;-76
2021/10/03 02:26:51;;;;;;;3.58;2.72;;;;;;;1.23;90.05;101900.28;6312489;22;20092;-75
2021/10/03 02:29:35;;;;;;;4.30;4.10;;;;;;;1.31;90.36;101903.00;6334934;22;20457;-76
2021/10/03 02:32:20;;;;;;;6.72;6.22;;;;;;;1.43;90.42;101893.75;6335731;22;20030;-74
2021/10/03 02:35:06;;;;;;;4.97;4.57;;;;;;;1.42;90.24;101902.28;6335280;22;20025;-76
2021/10/03 02:37:51;;;;;;;6.07;5.43;;;;;;;1.40;90.34;101910.84;6312389;22;20075;-76
2021/10/03 02:40:35;;;;;;;3.50;3.28;;;;;;;1.40;90.05;101904.00;6334960;22;20377;-76
2021/10/03 02:43:20;;;;;;;3.65;3.55;;;;;;;1.40;90.01;101913.41;6312105;22;20092;-76
2021/10/03 02:46:05;;;;;;;3.05;2.83;;;;;;;1.43;90.21;101908.31;6335296;22;20485;-75
2021/10/03 02:48:50;;;;;;;4.82;4.63;;;;;;;1.31;89.91;101908.13;6335189;22;20030;-75
2021/10/03 02:51:35;;;;;;;5.47;5.13;;;;;;;1.28;90.16;101913.19;6311466;22;20029;-76
2021/10/03 02:54:19;;;;;;;5.53;3.65;;;;;;;1.35;90.35;101902.16;6290241;22;20026;-75
2021/10/03 02:57:05;;;;;;;5.50;5.10;;;;;;;1.34;90.26;101892.75;6335456;22;20098;-74
2021/10/03 02:59:49;;;;;;;6.13;5.55;;;;;;;1.46;90.38;101903.22;6311729;22;20029;-75
2021/10/03 03:02:34;;;;;;;4.05;3.85;;;;;;;1.45;90.34;101906.63;6335133;22;20029;-76
2021/10/03 03:05:18;;;;;;;5.32;5.13;;;;;;;1.47;90.22;101910.09;6335945;22;20370;-75
2021/10/03 03:08:03;;;;;;;12.98;5.65;;;;;;;1.46;90.38;101909.22;6336279;22;20026;-73
2021/10/03 03:10:47;;;;;;;5.05;4.85;;;;;;;1.43;90.52;101913.47;6318266;22;20029;-74
2021/10/03 03:13:32;;;;;;;6.63;6.13;;;;;;;1.21;90.16;101890.81;6347080;22;20049;-74
2021/10/03 03:16:16;;;;;;;4.50;4.25;;;;;;;1.28;90.37;101905.47;6321614;22;20053;-75
2021/10/03 03:19:01;;;;;;;6.22;5.95;;;;;;;1.22;90.44;101910.53;6336119;22;20084;-75
2021/10/03 03:21:46;;;;;;;9.20;6.07;;;;;;;1.19;90.27;101907.91;6334935;22;20614;-74
2021/10/03 03:24:30;;;;;;;4.25;4.05;;;;;;;1.18;90.17;101906.19;6335013;22;20087;-75
2021/10/03 03:27:15;;;;;;;8.18;6.88;;;;;;;1.16;90.25;101902.72;6335298;22;20025;-74
2021/10/03 03:29:59;;;;;;;6.68;6.15;;;;;;;1.31;90.75;101903.00;6289876;22;20088;-75
2021/10/03 03:32:44;;;;;;;6.28;5.03;;;;;;;1.30;90.58;101906.38;6334812;22;20081;-75
2021/10/03 03:35:28;;;;;;;5.45;4.75;;;;;;;1.30;90.76;101907.25;6334775;22;20057;-76
2021/10/03 03:38:13;;;;;;;4.13;3.92;;;;;;;1.30;90.53;101921.81;6311654;22;20072;-74
2021/10/03 03:40:57;;;;;;;5.38;4.97;;;;;;;1.17;90.40;101913.06;6335009;22;20468;-75
2021/10/03 03:43:42;;;;;;;3.00;2.78;;;;;;;1.15;90.17;101916.41;6334593;22;20073;-76
2021/10/03 03:46:26;;;;;;;3.40;3.20;;;;;;;1.17;90.03;101920.75;6311618;22;20025;-76
2021/10/03 03:49:10;;;;;;;2.97;2.85;;;;;;;1.18;89.85;101909.63;6335034;22;20677;-82
2021/10/03 03:51:55;;;;;;;5.05;4.72;;;;;;;1.18;89.44;101908.78;6334891;22;20034;-73
2021/10/03 03:54:39;;;;;;;4.70;3.00;;;;;;;1.16;89.50;101907.88;6334472;22;20072;-73
2021/10/03 04:42:37;;;;;;;3.15;2.80;;;;;;;4.66;71.02;101899.13;6328424;22;20091;-73
2021/10/03 04:45:21;;;;;;;3.83;3.60;;;;;;;4.48;73.58;101904.28;6302714;22;20495;-74
2021/10/03 04:48:06;;;;;;;4.20;3.95;;;;;;;4.46;73.58;101905.97;6303047;22;20080;-74
2021/10/03 04:50:50;;;;;;;26.17;5.45;;;;;;;5.01;70.94;101902.63;6257328;22;20034;-74
2021/10/03 04:53:35;;;;;;;4.68;4.38;;;;;;;4.71;72.27;101912.94;6304243;22;20026;-74
2021/10/03 04:56:20;;;;;;;4.85;4.57;;;;;;;4.44;74.67;101912.88;6279635;22;20045;-74
2021/10/03 04:59:05;;;;;;;3.65;3.45;;;;;;;5.29;70.87;101908.69;6275591;22;20413;-73
2021/10/03 05:01:49;;;;;;;4.70;4.30;;;;;;;6.10;68.92;101905.09;6303288;22;20076;-73
2021/10/03 05:04:34;;;;;;;4.15;3.85;;;;;;;6.62;67.18;101904.84;6278880;22;20049;-74
2021/10/03 05:07:19;;;;;;;4.93;4.45;;;;;;;6.70;66.34;101900.50;6302655;22;20061;-72
2021/10/03 05:10:04;;;;;;;21.48;5.60;;;;;;;7.08;65.09;101895.88;6301661;22;20520;-73
2021/10/03 05:12:49;;;;;;;5.78;3.65;;;;;;;6.44;67.04;101897.19;6301096;22;20057;-73
2021/10/03 05:15:34;;;;;;;6.22;5.60;;;;;;;6.22;68.06;101899.88;6256078;22;20030;-74
2021/10/03 05:18:18;;;;;;;5.07;4.80;;;;;;;6.85;66.21;101895.19;6278343;22;20081;-74
2021/10/03 05:21:06;;;;;;;5.43;3.88;;;;;;;7.23;64.89;101900.94;6302798;22;20030;-73
2021/10/03 05:23:50;;;;;;;5.63;5.22;;;;;;;7.38;64.39;101905.16;6303472;22;20485;-75
2021/10/03 05:26:35;;;;;;;6.05;5.50;;;;;;;7.82;62.93;101904.72;6303742;22;20493;-74
2021/10/03 05:29:19;;;;;;;4.72;4.38;;;;;;;7.80;63.37;101906.50;6280510;22;20030;-76
2021/10/03 05:32:04;;;;;;;5.15;4.75;;;;;;;7.90;63.17;101907.25;6303887;22;20111;-75
2021/10/03 05:34:48;;;;;;;11.82;6.80;;;;;;;7.14;65.64;101908.81;6303501;22;20025;-78
2021/10/03 05:37:33;;;;;;;6.20;5.65;;;;;;;6.21;70.01;101910.25;6305038;22;20030;-73
2021/10/03 05:40:18;;;;;;;4.82;4.43;;;;;;;6.54;70.38;101909.25;6310274;22;20073;-75
2021/10/03 05:43:02;;;;;;;5.75;5.28;;;;;;;7.12;68.43;101895.00;6266298;22;20076;-74
2021/10/03 05:45:47;;;;;;;6.13;5.57;;;;;;;7.21;68.56;101912.25;6336761;22;20531;-72
2021/10/03 05:48:32;;;;;;;5.95;5.45;;;;;;;7.49;67.58;101892.09;6335953;22;20405;-73
2021/10/03 05:51:16;;;;;;;5.53;5.05;;;;;;;7.24;67.47;101910.47;6315299;22;20092;-74
2021/10/03 05:54:02;;;;;;;7.00;6.50;;;;;;;7.34;67.54;101913.84;6339482;22;20030;-74
2021/10/03 05:56:47;;;;;;;7.82;5.85;;;;;;;8.20;65.83;101907.78;6337193;22;20073;-74
2021/10/03 05:59:31;;;;;;;10.05;6.10;;;;;;;8.31;63.77;101911.13;6315095;22;20539;-74
2021/10/03 06:02:16;;;;;;;6.15;5.60;;;;;;;7.88;65.42;101907.28;6311720;22;20044;-74
2021/10/03 06:05:00;;;;;;;8.23;7.53;;;;;;;8.45;63.69;101908.34;6293290;22;20106;-74
2021/10/03 06:07:45;;;;;;;6.15;5.05;;;;;;;8.25;62.97;101905.09;6315085;22;20050;-74
2021/10/03 06:10:29;;;;;;;6.10;5.43;;;;;;;7.81;64.82;101908.22;6315412;22;20056;-74
2021/10/03 06:13:14;;;;;;;6.75;6.07;;;;;;;7.84;65.02;101913.38;6293477;22;20030;-73
2021/10/03 06:15:59;;;;;;;5.32;5.03;;;;;;;8.45;61.61;101904.88;6313784;22;20025;-75
2021/10/03 06:18:43;;;;;;;13.82;10.60;;;;;;;7.81;63.98;101906.50;6299867;22;20030;-75
2021/10/03 06:21:28;;;;;;;7.47;5.93;;;;;;;8.12;63.75;101904.38;6338310;22;20397;-74
2021/10/03 06:24:12;;;;;;;7.20;6.05;;;;;;;8.35;62.17;101910.22;6297179;22;20025;-75
2021/10/03 06:26:57;;;;;;;7.30;6.63;;;;;;;8.30;62.95;101908.56;6317375;22;20025;-75
2021/10/03 06:29:42;;;;;;;6.53;6.03;;;;;;;8.63;61.21;101907.25;6315783;22;20041;-75
2021/10/03 06:32:26;;;;;;;7.10;6.50;;;;;;;9.14;59.20;101901.25;6340832;22;20029;-74
2021/10/03 06:35:11;;;;;;;7.25;6.68;;;;;;;8.60;61.36;101902.09;6341460;22;20030;-74
2021/10/03 06:37:58;;;;;;;6.20;5.15;;;;;;;8.61;60.83;101904.66;6340461;22;20029;-75
2021/10/03 06:40:42;;;;;;;5.28;4.88;;;;;;;9.58;58.60;101897.03;6340043;22;20049;-75
2021/10/03 06:43:27;;;;;;;8.30;7.30;;;;;;;9.26;60.38;101898.44;6339964;22;20095;-74
2021/10/03 06:46:12;;;;;;;8.10;7.47;;;;;;;9.56;58.74;101897.06;6336421;22;20033;-75
2021/10/03 06:48:56;;;;;;;7.60;7.03;;;;;;;9.84;59.23;101897.41;6338571;22;20087;-74
2021/10/03 06:51:43;;;;;;;5.55;5.07;;;;;;;9.32;60.24;101892.28;6337127;22;20080;-74
2021/10/03 06:54:27;;;;;;;7.40;6.70;;;;;;;9.75;58.35;101900.22;6294877;22;20026;-74
2021/10/03 06:57:12;;;;;;;7.22;6.72;;;;;;;9.89;57.86;101899.03;6338534;22;20418;-74
2021/10/03 06:59:56;;;;;;;8.73;5.35;;;;;;;10.37;56.14;101902.44;6318582;22;20030;-74
2021/10/03 07:02:41;;;;;;;8.07;6.20;;;;;;;9.79;57.57;101896.63;6298666;22;20689;-74
2021/10/03 07:05:25;;;;;;;11.52;7.20;;;;;;;9.35;57.91;101897.44;6299119;22;20029;-75
2021/10/03 07:08:12;;;;;;;19.60;7.95;;;;;;;9.62;57.93;101893.50;6342422;22;20087;-74
2021/10/03 07:10:56;;;;;;;3.67;3.47;;;;;;;8.50;60.06;101897.88;6340655;22;20033;-74
2021/10/03 07:13:41;;;;;;;15.70;8.43;;;;;;;8.78;59.44;101894.00;6342222;22;20030;-74
2021/10/03 07:16:25;;;;;;;5.43;4.90;;;;;;;9.60;58.13;101895.25;6339540;22;20139;-75
2021/10/03 07:19:10;;;;;;;6.20;5.60;;;;;;;9.54;57.81;101887.53;6344839;22;20228;-74
2021/10/03 07:21:55;;;;;;;7.20;6.32;;;;;;;9.30;57.63;101894.03;6317208;22;20029;-74
2021/10/03 07:24:39;;;;;;;5.93;5.53;;;;;;;9.30;57.80;101897.50;6342505;22;20025;-75
2021/10/03 07:27:23;;;;;;;5.38;4.95;;;;;;;9.94;56.14;101889.41;6343192;22;20061;-74
2021/10/03 07:30:11;;;;;;;6.03;5.47;;;;;;;9.92;56.14;101898.13;6313223;22;20030;-73
2021/10/03 07:32:55;;;;;;;5.65;5.15;;;;;;;10.49;55.22;101890.03;6311217;22;20029;-74
2021/10/03 07:35:40;;;;;;;6.85;6.25;;;;;;;10.56;53.49;101892.47;6311113;22;20080;-74
2021/10/03 07:38:24;;;;;;;5.50;5.20;;;;;;;10.77;53.12;101888.50;6335346;22;20025;-74
2021/10/03 07:41:09;;;;;;;11.65;6.72;;;;;;;11.18;54.04;101891.00;6336154;22;20045;-74
2021/10/03 07:43:54;;;;;;;17.52;6.25;;;;;;;11.26;52.64;101883.81;6336516;22;20025;-73
2021/10/03 07:46:39;;;;;;;17.23;6.60;;;;;;;11.24;53.48;101883.00;6311585;22;20061;-75
2021/10/03 07:49:26;;;;;;;4.78;4.47;;;;;;;11.69;51.08;101873.09;6335065;22;20037;-74
2021/10/03 07:52:10;;;;;;;4.03;3.83;;;;;;;11.10;51.77;101877.25;6335538;22;20030;-76
2021/10/03 07:54:55;;;;;;;4.90;4.53;;;;;;;11.06;51.77;101888.66;6311243;22;20025;-74
2021/10/03 07:57:40;;;;;;;7.53;4.47;;;;;;;11.23;51.51;101876.06;6311479;22;20358;-74
2021/10/03 08:00:24;;;;;;;5.18;4.68;;;;;;;11.38;51.40;101882.66;6335009;22;20080;-74
2021/10/03 08:03:09;;;;;;;14.95;6.30;;;;;;;11.27;51.12;101876.84;6334843;22;20106;-74
2021/10/03 08:05:53;;;;;;;4.75;4.35;;;;;;;11.31;50.77;101874.13;6334342;22;20076;-74
2021/10/03 08:08:38;;;;;;;4.80;4.40;;;;;;;11.08;51.70;101886.91;6311323;22;20029;-74
2021/10/03 08:11:22;;;;;;;7.82;5.25;;;;;;;11.89;49.58;101876.06;6311390;22;20159;-75
2021/10/03 08:14:07;;;;;;;5.03;4.63;;;;;;;12.42;48.14;101879.75;6289632;22;20497;-75
2021/10/03 08:16:52;;;;;;;5.72;5.30;;;;;;;12.61;48.32;101874.81;6310879;22;20107;-74
2021/10/03 08:19:36;;;;;;;6.53;5.22;;;;;;;13.33;46.00;101870.75;6334692;22;20102;-74
2021/10/03 08:22:21;;;;;;;5.57;5.05;;;;;;;11.88;49.04;101874.34;6334879;22;20034;-73
2021/10/03 08:25:07;;;;;;;4.97;4.57;;;;;;;11.89;49.55;101872.59;6334587;22;20493;-74
2021/10/03 08:27:52;;;;;;;6.95;6.15;;;;;;;11.15;51.73;101882.38;6289429;22;20072;-73
2021/10/03 08:30:36;;;;;;;6.03;5.43;;;;;;;11.72;50.19;101872.19;6311225;22;20050;-72
2021/10/03 08:33:21;;;;;;;6.32;4.70;;;;;;;11.75;50.33;101869.47;6334796;22;20033;-72
2021/10/03 08:36:05;;;;;;;4.97;4.57;;;;;;;11.54;50.46;101870.03;6334345;22;20041;-72
2021/10/03 08:38:52;;;;;;;9.77;6.22;;;;;;;11.37;51.51;101876.56;6334151;22;20030;-73
2021/10/03 08:41:38;;;;;;;6.43;4.72;;;;;;;11.17;51.29;101876.22;6334343;22;20095;-72
2021/10/03 08:44:26;;;;;;;5.82;4.22;;;;;;;11.27;50.58;101874.22;6334225;22;20109;-72
2021/10/03 08:47:10;;;;;;;7.18;4.15;;;;;;;11.36;51.33;101876.59;6334655;22;20075;-74
2021/10/03 08:49:55;;;;;;;5.00;4.05;;;;;;;11.77;50.11;101875.56;6334742;22;20026;-73
2021/10/03 08:52:39;;;;;;;9.52;4.55;;;;;;;10.90;52.35;101890.81;6311196;22;20050;-74
2021/10/03 08:55:24;;;;;;;8.63;5.15;;;;;;;10.72;52.99;101882.53;6269994;22;20026;-72
2021/10/03 08:58:09;;;;;;;6.70;4.18;;;;;;;11.46;51.48;101883.31;6336347;22;20106;-74
2021/10/03 09:00:53;;;;;;;9.85;5.22;;;;;;;11.34;52.20;101878.41;6335638;22;20030;-73
2021/10/03 09:03:38;;;;;;;4.72;4.32;;;;;;;10.11;55.89;101883.81;6336186;22;20090;-72
2021/10/03 09:06:22;;;;;;;4.18;3.85;;;;;;;10.10;55.20;101884.72;6291102;22;20416;-72
2021/10/03 09:09:07;;;;;;;4.35;3.95;;;;;;;10.16;55.09;101873.31;6335857;22;20405;-72
2021/10/03 09:11:51;;;;;;;2.05;1.95;;;;;;;9.74;56.22;101877.63;6336445;22;20385;-73
2021/10/03 09:14:35;;;;;;;3.17;2.97;;;;;;;9.67;56.03;101881.22;6313537;22;20029;-74
2021/10/03 09:17:20;;;;;;;3.08;2.60;;;;;;;9.52;56.31;101890.16;6291249;22;20025;-73
2021/10/03 09:20:12;;;;;;;4.00;3.75;;;;;;;9.30;57.45;101887.06;6313162;22;20092;-73
2021/10/03 09:23:17;;;;;;;1.05;1.05;;;;;;;9.20;57.80;101880.31;6335348;22;20026;-74
2021/10/03 09:26:02;;;;;;;4.85;1.75;;;;;;;9.28;57.85;101878.44;6335225;22;20068;-73
2021/10/03 09:28:48;;;;;;;4.47;3.70;;;;;;;10.00;56.46;101870.13;6335168;22;20030;-73
2021/10/03 09:31:34;;;;;;;3.63;3.17;;;;;;;10.12;55.03;101869.88;6335450;22;20030;-75
2021/10/03 09:34:25;;;;;;;3.17;3.00;;;;;;;10.15;55.08;101875.06;6312965;22;20097;-73
2021/10/03 09:37:23;;;;;;;1.63;1.52;;;;;;;9.51;57.21;101882.38;6335855;22;20030;-73
2021/10/03 09:40:12;;;;;;;2.88;2.67;;;;;;;9.71;57.23;101885.50;6335704;22;20025;-71
2021/10/03 09:43:02;;;;;;;3.22;3.05;;;;;;;9.87;56.10;101868.66;6312023;22;20362;-73
2021/10/03 09:45:47;;;;;;;3.05;2.85;;;;;;;10.34;55.38;101876.41;6312062;22;20083;-71
2021/10/03 09:48:50;;;;;;;3.25;3.05;;;;;;;10.42;54.04;101879.72;6335384;22;20025;-73
2021/10/03 09:51:34;;;;;;;0.73;0.73;;;;;;;9.83;55.60;101880.03;6335306;22;20114;-74
2021/10/03 09:54:19;;;;;;;2.85;2.75;;;;;;;10.15;55.63;101869.84;6335621;22;20026;-74
2021/10/03 09:57:04;;;;;;;2.25;2.15;;;;;;;9.74;56.10;101877.63;6311711;22;20033;-73
2021/10/03 17:02:44;;;;;;;4.97;4.78;;;;;;;6.92;75.13;101828.50;6365456;22;20069;-73
2021/10/03 17:05:28;;;;;;;8.55;6.18;;;;;;;6.90;75.25;101828.53;6342773;22;20037;-74
2021/10/03 17:08:13;;;;;;;10.55;8.07;;;;;;;6.84;75.48;101825.97;6363850;22;20040;-74
2021/10/03 17:10:57;;;;;;;7.15;6.50;;;;;;;6.87;75.40;101827.69;6363444;22;20480;-74
2021/10/03 17:13:42;;;;;;;10.27;9.15;;;;;;;6.84;75.75;101825.97;6340132;22;20052;-74
2021/10/03 17:16:26;;;;;;;9.70;6.72;;;;;;;6.80;75.69;101825.16;6365639;22;20045;-74
2021/10/03 17:19:12;;;;;;;6.18;5.15;;;;;;;6.80;75.79;101824.28;6366272;22;20065;-75
2021/10/03 17:21:56;;;;;;;17.30;5.25;;;;;;;6.80;75.79;101832.06;6319986;22;20353;-76
2021/10/03 17:24:43;;;;;;;7.25;5.53;;;;;;;6.79;75.99;101840.72;6366066;22;20091;-75
2021/10/03 17:27:27;;;;;;;5.97;5.57;;;;;;;6.76;76.13;101838.16;6342590;22;20021;-75
2021/10/03 17:30:12;;;;;;;15.40;5.80;;;;;;;6.72;76.45;101836.44;6365943;22;20052;-75
2021/10/03 17:32:57;;;;;;;20.23;6.75;;;;;;;6.70;77.21;101839.06;6366528;22;20350;-75
2021/10/03 17:35:42;;;;;;;6.03;5.50;;;;;;;6.63;77.26;101834.78;6344708;22;20028;-75
2021/10/03 17:38:26;;;;;;;11.18;8.40;;;;;;;6.65;77.21;101839.94;6370239;22;20025;-76
2021/10/03 17:41:14;;;;;;;8.68;5.78;;;;;;;6.61;77.55;101838.28;6346446;22;20116;-77
2021/10/03 17:43:58;;;;;;;6.15;5.72;;;;;;;6.58;77.80;101835.66;6367797;22;20032;-77
2021/10/03 17:46:43;;;;;;;7.82;7.25;;;;;;;6.49;77.66;101834.00;6343978;22;20033;-76
2021/10/03 17:49:29;;;;;;;5.65;5.13;;;;;;;6.51;77.91;101834.84;6363987;22;20106;-76
2021/10/03 17:52:13;;;;;;;6.40;6.00;;;;;;;6.50;78.25;101842.66;6368989;22;20069;-77
2021/10/03 17:55:00;;;;;;;7.38;6.72;;;;;;;6.40;78.26;101843.59;6322917;22;20421;-75
2021/10/03 17:57:45;;;;;;;10.38;7.03;;;;;;;6.45;78.24;101849.59;6341659;22;20030;-76
2021/10/03 18:00:30;;;;;;;13.65;7.50;;;;;;;6.42;78.70;101850.47;6316214;22;20078;-76
2021/10/03 18:03:16;;;;;;;8.93;7.18;;;;;;;6.37;78.60;101843.59;6316288;22;20079;-75
2021/10/03 18:06:01;;;;;;;6.95;6.38;;;;;;;6.39;78.63;101855.69;6338570;22;20045;-76
2021/10/03 18:08:45;;;;;;;9.07;8.30;;;;;;;6.38;79.02;101858.31;6338558;22;20025;-75
2021/10/03 18:11:30;;;;;;;14.82;6.30;;;;;;;6.37;78.92;101864.34;6319438;22;20102;-76
2021/10/03 18:14:14;;;;;;;8.45;7.35;;;;;;;6.32;78.90;101856.59;6362309;22;20029;-76
2021/10/03 18:16:59;;;;;;;7.55;7.00;;;;;;;6.29;79.22;101861.78;6359171;22;20086;-75
2021/10/03 18:19:44;;;;;;;6.05;5.60;;;;;;;6.24;79.40;101858.38;6365873;22;20083;-75
2021/10/03 18:22:28;;;;;;;8.52;7.82;;;;;;;6.22;79.38;101857.50;6320139;22;20040;-75
2021/10/03 18:25:13;;;;;;;7.05;5.95;;;;;;;6.19;79.58;101855.78;6342526;22;20132;-76
2021/10/03 18:27:57;;;;;;;12.45;8.32;;;;;;;6.16;79.70;101861.00;6366147;22;20025;-74
2021/10/03 18:30:42;;;;;;;5.75;5.35;;;;;;;6.16;80.20;101867.91;6320810;22;20350;-73
2021/10/03 18:33:27;;;;;;;8.52;7.75;;;;;;;6.05;80.03;101854.97;6366200;22;20110;-73
2021/10/03 18:36:11;;;;;;;32.88;6.72;;;;;;;6.08;80.31;101873.16;6366415;22;20500;-73
2021/10/03 18:38:56;;;;;;;13.25;7.65;;;;;;;6.02;80.33;101875.72;6366793;22;20128;-74
2021/10/03 18:41:41;;;;;;;28.05;7.43;;;;;;;5.97;80.80;101869.72;6342732;22;20065;-74
2021/10/03 18:44:25;;;;;;;9.75;9.05;;;;;;;5.95;81.00;101876.66;6342237;22;20107;-74
2021/10/03 18:47:09;;;;;;;8.93;8.02;;;;;;;5.91;81.50;101879.25;6321170;22;20362;-74
2021/10/03 18:49:54;;;;;;;12.05;9.43;;;;;;;5.84;81.29;101880.97;6320928;22;20025;-75
2021/10/03 18:52:38;;;;;;;14.98;6.32;;;;;;;5.77;81.71;101879.25;6366304;22;20090;-77
2021/10/03 18:55:25;;;;;;;16.27;8.35;;;;;;;5.75;82.28;101886.19;6294821;22;20106;-77
2021/10/03 18:58:10;;;;;;;9.75;7.80;;;;;;;5.67;82.24;101883.59;6367457;22;20380;-75
2021/10/03 19:00:55;;;;;;;7.20;6.45;;;;;;;5.62;82.46;101882.75;6368133;22;20083;-73
2021/10/03 19:03:39;;;;;;;8.52;7.35;;;;;;;5.51;82.91;101883.63;6322014;22;20042;-74
2021/10/03 19:06:23;;;;;;;7.40;6.75;;;;;;;5.48;83.77;101884.50;6366958;22;20590;-73
2021/10/03 19:09:11;;;;;;;8.00;7.35;;;;;;;5.57;84.10;101893.97;6364770;22;20032;-74
2021/10/03 19:11:59;;;;;;;13.82;7.28;;;;;;;5.55;83.88;101890.53;6367875;22;20053;-73
2021/10/03 19:14:47;;;;;;;7.20;5.57;;;;;;;5.51;84.15;101888.81;6346955;22;20110;-74
2021/10/03 19:17:35;;;;;;;10.52;7.45;;;;;;;5.52;83.92;101894.00;6366800;22;20382;-73
2021/10/03 19:20:19;;;;;;;14.50;8.63;;;;;;;5.55;83.63;101895.72;6342692;22;20113;-75
2021/10/03 19:23:04;;;;;;;7.43;6.93;;;;;;;5.51;83.52;101888.81;6366376;22;20029;-74
2021/10/03 19:25:48;;;;;;;8.13;7.43;;;;;;;5.50;84.02;101893.13;6368563;22;20099;-76
2021/10/03 19:28:33;;;;;;;20.80;15.77;;;;;;;5.45;84.55;101888.81;6368831;22;20061;-76
2021/10/03 19:31:18;;;;;;;21.42;16.10;;;;;;;5.43;85.03;101885.38;6341439;22;20118;-75
2021/10/03 19:34:03;;;;;;;19.38;10.98;;;;;;;5.38;85.05;101890.53;6365802;22;20072;-73
2021/10/03 19:36:47;;;;;;;18.80;12.20;;;;;;;5.32;84.99;101894.88;6097240;22;34420;-75
2021/10/03 19:39:31;;;;;;;15.13;11.73;;;;;;;5.32;85.16;101903.50;6199421;22;20163;-76
2021/10/03 19:42:16;;;;;;;11.30;8.00;;;;;;;5.28;85.50;101900.91;6109238;22;85966;-78
2021/10/03 19:45:00;;;;;;;21.52;7.78;;;;;;;5.22;85.03;101902.66;6189508;22;20073;-76
2021/10/03 19:47:46;;;;;;;5.65;5.15;;;;;;;5.23;86.18;101901.75;6201753;22;20106;-75
2021/10/03 19:50:30;;;;;;;9.95;5.20;;;;;;;5.19;86.92;101901.78;6245802;22;20046;-75
2021/10/03 19:53:15;;;;;;;8.05;6.88;;;;;;;5.21;86.08;101900.03;6237216;22;20035;-75
2021/10/03 19:56:00;;;;;;;8.27;7.63;;;;;;;5.13;86.16;101901.78;6215955;22;20035;-75
2021/10/03 19:58:44;;;;;;;18.27;8.68;;;;;;;5.11;86.07;101903.50;6188867;23;20097;-81
2021/10/03 20:01:29;;;;;;;10.65;7.50;;;;;;;4.96;85.61;101906.06;6198010;23;20031;-80
2021/10/03 20:04:13;;;;;;;14.18;9.13;;;;;;;4.87;85.97;101906.94;6240978;23;20517;-78
2021/10/03 20:06:58;;;;;;;13.15;11.05;;;;;;;4.82;86.38;101908.66;6242607;23;20031;-80
2021/10/03 20:09:43;;;;;;;12.10;10.15;;;;;;;4.77;86.76;101912.97;6219152;23;20493;-79
2021/10/03 20:12:28;;;;;;;19.38;8.82;;;;;;;4.79;86.94;101924.16;6241649;23;20031;-80
2021/10/03 20:15:12;;;;;;;5.70;5.35;;;;;;;4.81;86.84;101919.84;6200344;23;20031;-81
2021/10/03 20:17:57;;;;;;;7.20;6.40;;;;;;;4.85;86.96;101916.41;6244222;23;20625;-78
2021/10/03 20:20:42;;;;;;;7.88;7.28;;;;;;;4.78;86.25;101921.59;6245410;23;20089;-81
2021/10/03 20:23:26;;;;;;;8.63;7.88;;;;;;;4.79;86.72;101919.00;6178476;23;20086;-82
2021/10/03 20:26:11;;;;;;;10.02;7.65;;;;;;;4.80;86.57;101922.44;6219995;23;20030;-81
2021/10/03 20:28:55;;;;;;;7.45;6.82;;;;;;;4.78;86.54;101919.84;6220074;23;20030;-80
2021/10/03 20:31:40;;;;;;;12.70;10.05;;;;;;;4.77;86.12;101918.13;6243032;23;20426;-79
2021/10/03 20:34:24;;;;;;;6.05;5.65;;;;;;;4.73;86.18;101918.97;6219243;23;20081;-79
2021/10/03 20:37:10;;;;;;;11.15;8.13;;;;;;;4.68;86.42;101918.09;6249161;23;20031;-84
2021/10/03 20:40:25;;;;;;;35.63;16.50;;;;;;;4.75;86.13;101922.41;5084981;27;20401;-79